createdAt,value
2022-11-25T00:00:29.203Z,100210.00
2022-11-25T00:02:58.129Z,100209.00
2022-11-25T00:05:28.464Z,100206.00
2022-11-25T00:07:57.192Z,100211.00
2022-11-25T00:10:25.963Z,100202.00
2022-11-25T00:12:54.676Z,100202.00
2022-11-25T00:15:23.434Z,100208.00
2022-11-25T00:17:53.672Z,100213.00
2022-11-25T00:20:22.604Z,100204.00
2022-11-25T00:22:51.321Z,100208.00
2022-11-25T00:25:20.059Z,100198.00
2022-11-25T00:27:48.751Z,100212.00
2022-11-25T00:30:17.690Z,100201.00
2022-11-25T00:32:46.428Z,100203.00
2022-11-25T00:35:16.746Z,100197.00
2022-11-25T00:37:45.485Z,100197.00
2022-11-25T00:40:15.066Z,100203.00
2022-11-25T00:43:00.884Z,100208.00
2022-11-25T00:45:29.726Z,100208.00
2022-11-25T00:47:58.466Z,100210.00
2022-11-25T00:50:28.578Z,100201.00
2022-11-25T00:52:57.312Z,100200.00
2022-11-25T00:55:45.998Z,100200.00
2022-11-25T00:58:14.653Z,100201.00
2022-11-25T01:00:43.352Z,100208.00
2022-11-25T01:03:13.201Z,100208.00
2022-11-25T01:05:43.312Z,100215.00
2022-11-25T01:08:12.086Z,100207.00
2022-11-25T01:10:40.845Z,100207.00
2022-11-25T01:13:09.523Z,100207.00
2022-11-25T01:15:38.986Z,100197.00
2022-11-25T01:18:07.772Z,100202.00
2022-11-25T01:20:36.509Z,100198.00
2022-11-25T01:23:06.674Z,100201.00
2022-11-25T01:25:38.697Z,100198.00
2022-11-25T01:28:07.597Z,100198.00
2022-11-25T01:30:41.046Z,100196.00
2022-11-25T01:33:10.091Z,100204.00
2022-11-25T01:35:39.288Z,100189.00
2022-11-25T01:38:09.357Z,100198.00
2022-11-25T01:40:38.152Z,100196.00
2022-11-25T01:43:12.443Z,100194.00
2022-11-25T01:45:41.692Z,100197.00
2022-11-25T01:48:17.476Z,100199.00
2022-11-25T01:50:49.288Z,100189.00
2022-11-25T01:53:22.590Z,100185.00
2022-11-25T01:55:55.028Z,100195.00
2022-11-25T01:58:27.461Z,100201.00
2022-11-25T02:00:56.252Z,100194.00
2022-11-25T02:03:29.023Z,100200.00
2022-11-25T02:06:05.877Z,100202.00
2022-11-25T02:08:35.989Z,100204.00
2022-11-25T02:11:05.782Z,100196.00
2022-11-25T02:13:35.267Z,100193.00
2022-11-25T02:16:03.936Z,100192.00
2022-11-25T02:18:32.811Z,100196.00
2022-11-25T02:21:01.818Z,100199.00
2022-11-25T02:23:39.992Z,100206.00
2022-11-25T02:26:10.606Z,100201.00
2022-11-25T02:28:40.146Z,100188.00
2022-11-25T02:31:09.316Z,100190.00
2022-11-25T02:33:38.129Z,100186.00
2022-11-25T02:36:12.230Z,100193.00
2022-11-25T02:38:44.606Z,100188.00
2022-11-25T02:41:17.822Z,100191.00
2022-11-25T02:43:46.727Z,100186.00
2022-11-25T02:46:21.905Z,100187.00
2022-11-25T02:49:09.194Z,100184.00
2022-11-25T02:51:38.950Z,100183.00
2022-11-25T02:54:08.417Z,100194.00
2022-11-25T02:56:40.130Z,100185.00
2022-11-25T02:59:09.799Z,100185.00
2022-11-25T03:01:39.371Z,100193.00
2022-11-25T03:04:08.630Z,100188.00
2022-11-25T03:06:37.591Z,100187.00
2022-11-25T03:09:06.301Z,100199.00
2022-11-25T03:11:52.536Z,100200.00
2022-11-25T03:14:22.743Z,100198.00
2022-11-25T03:16:51.465Z,100191.00
2022-11-25T03:19:20.189Z,100201.00
2022-11-25T03:21:48.922Z,100189.00
2022-11-25T03:24:17.633Z,100193.00
2022-11-25T03:26:46.362Z,100194.00
2022-11-25T03:29:15.050Z,100195.00
2022-11-25T03:31:45.260Z,100193.00
2022-11-25T03:34:14.206Z,100200.00
2022-11-25T03:36:42.985Z,100199.00
2022-11-25T03:39:11.751Z,100209.00
2022-11-25T03:41:40.508Z,100208.00
2022-11-25T03:44:09.337Z,100214.00
2022-11-25T03:46:38.087Z,100209.00
2022-11-25T03:49:08.346Z,100211.00
2022-11-25T03:51:37.074Z,100223.00
2022-11-25T03:54:05.802Z,100215.00
2022-11-25T03:56:34.529Z,100220.00
2022-11-25T03:59:03.250Z,100223.00
2022-11-25T04:01:32.103Z,100211.00
2022-11-25T04:04:00.853Z,100215.00
2022-11-25T04:06:32.147Z,100211.00
2022-11-25T04:09:00.805Z,100225.00
2022-11-25T04:11:43.311Z,100223.00
2022-11-25T04:14:11.985Z,100222.00
2022-11-25T04:16:40.823Z,100224.00
2022-11-25T04:19:09.635Z,100226.00
2022-11-25T04:21:39.747Z,100220.00
2022-11-25T04:24:09.166Z,100224.00
2022-11-25T04:26:37.925Z,100217.00
2022-11-25T04:29:07.322Z,100223.00
2022-11-25T04:31:39.871Z,100226.00
2022-11-25T04:34:14.859Z,100227.00
2022-11-25T04:36:46.521Z,100232.00
2022-11-25T04:39:17.201Z,100227.00
2022-11-25T04:41:48.188Z,100233.00
2022-11-25T04:44:27.055Z,100227.00
2022-11-25T04:47:07.239Z,100230.00
2022-11-25T04:49:40.015Z,100233.00
2022-11-25T04:52:13.746Z,100231.00
2022-11-25T04:54:46.326Z,100238.00
2022-11-25T04:57:19.643Z,100224.00
2022-11-25T04:59:49.774Z,100228.00
2022-11-25T05:02:22.364Z,100233.00
2022-11-25T05:04:54.107Z,100223.00
2022-11-25T05:07:28.987Z,100215.00
2022-11-25T05:09:59.268Z,100221.00
2022-11-25T05:12:30.967Z,100226.00
2022-11-25T05:15:01.274Z,100224.00
2022-11-25T05:17:32.852Z,100214.00
2022-11-25T05:20:05.207Z,100215.00
2022-11-25T05:22:42.083Z,100221.00
2022-11-25T05:25:25.300Z,100215.00
2022-11-25T05:27:56.387Z,100219.00
2022-11-25T05:30:26.077Z,100213.00
2022-11-25T05:32:55.663Z,100215.00
2022-11-25T05:35:25.509Z,100214.00
2022-11-25T05:37:56.922Z,100222.00
2022-11-25T05:40:28.441Z,100220.00
2022-11-25T05:42:58.432Z,100227.00
2022-11-25T05:45:28.458Z,100225.00
2022-11-25T05:47:58.012Z,100226.00
2022-11-25T05:50:27.632Z,100226.00
2022-11-25T05:52:58.601Z,100227.00
2022-11-25T05:55:29.669Z,100227.00
2022-11-25T05:58:00.777Z,100226.00
2022-11-25T06:00:30.859Z,100227.00
2022-11-25T06:02:59.743Z,100231.00
2022-11-25T06:05:29.050Z,100232.00
2022-11-25T06:07:59.930Z,100238.00
2022-11-25T06:10:29.210Z,100241.00
2022-11-25T06:12:58.194Z,100237.00
2022-11-25T06:15:27.529Z,100244.00
2022-11-25T06:17:57.383Z,100248.00
2022-11-25T06:20:27.359Z,100254.00
2022-11-25T06:22:56.639Z,100242.00
2022-11-25T06:25:27.425Z,100247.00
2022-11-25T06:28:12.367Z,100245.00
2022-11-25T06:31:14.038Z,100246.00
2022-11-25T06:40:42.867Z,100251.00
2022-11-25T06:43:11.479Z,100255.00
2022-11-25T06:45:40.065Z,100262.00
2022-11-25T06:48:08.799Z,100251.00
2022-11-25T06:50:37.448Z,100251.00
2022-11-25T06:53:06.341Z,100250.00
2022-11-25T06:55:35.006Z,100254.00
2022-11-25T06:58:28.277Z,100258.00
2022-11-25T07:00:53.715Z,100262.00
2022-11-25T07:03:22.754Z,100271.00
2022-11-25T07:05:51.682Z,100270.00
2022-11-25T07:08:22.560Z,100270.00
2022-11-25T07:10:51.414Z,100279.00
2022-11-25T07:13:21.791Z,100288.00
2022-11-25T07:15:50.504Z,100284.00
2022-11-25T07:18:19.299Z,100285.00
2022-11-25T07:20:48.217Z,100289.00
2022-11-25T07:23:16.910Z,100291.00
2022-11-25T07:25:45.514Z,100290.00
2022-11-25T07:28:14.397Z,100293.00
2022-11-25T07:33:33.764Z,100297.00
2022-11-25T07:36:04.652Z,100306.00
2022-11-25T07:38:33.977Z,100301.00
2022-11-25T07:41:07.407Z,100311.00
2022-11-25T07:43:36.634Z,100315.00
2022-11-25T07:46:16.571Z,100313.00
2022-11-25T07:48:47.278Z,100306.00
2022-11-25T07:51:17.463Z,100302.00
2022-11-25T07:53:46.174Z,100305.00
2022-11-25T07:56:16.094Z,100308.00
2022-11-25T07:58:46.309Z,100311.00
2022-11-25T08:01:18.583Z,100310.00
2022-11-25T08:03:48.851Z,100313.00
2022-11-25T08:06:20.550Z,100309.00
2022-11-25T08:08:49.845Z,100308.00
2022-11-25T08:11:20.784Z,100306.00
2022-11-25T08:13:50.023Z,100304.00
2022-11-25T08:16:22.145Z,100297.00
2022-11-25T08:18:51.223Z,100301.00
2022-11-25T08:21:20.462Z,100298.00
2022-11-25T08:23:50.586Z,100307.00
2022-11-25T08:26:21.744Z,100314.00
2022-11-25T08:28:50.819Z,100315.00
2022-11-25T08:31:22.574Z,100306.00
2022-11-25T08:33:52.144Z,100312.00
2022-11-25T08:36:21.494Z,100316.00
2022-11-25T08:38:52.467Z,100320.00
2022-11-25T08:41:23.509Z,100322.00
2022-11-25T08:43:52.817Z,100330.00
2022-11-25T08:46:24.922Z,100321.00
2022-11-25T08:48:53.707Z,100313.00
2022-11-25T08:51:25.987Z,100317.00
2022-11-25T08:53:55.068Z,100320.00
2022-11-25T08:56:26.471Z,100321.00
2022-11-25T08:58:55.733Z,100312.00
2022-11-25T09:01:28.159Z,100314.00
2022-11-25T09:03:58.244Z,100317.00
2022-11-25T09:06:28.201Z,100312.00
2022-11-25T09:08:57.842Z,100320.00
2022-11-25T09:11:26.898Z,100320.00
2022-11-25T09:13:55.763Z,100320.00
2022-11-25T09:16:26.923Z,100318.00
2022-11-25T09:18:56.527Z,100317.00
2022-11-25T09:21:25.929Z,100309.00
2022-11-25T09:23:55.744Z,100312.00
2022-11-25T09:26:26.735Z,100314.00
2022-11-25T09:28:56.705Z,100313.00
2022-11-25T09:31:27.334Z,100318.00
2022-11-25T09:34:00.217Z,100330.00
2022-11-25T09:36:29.900Z,100304.00
2022-11-25T09:39:06.451Z,100311.00
2022-11-25T09:42:12.057Z,100318.00
2022-11-25T09:45:10.957Z,100319.00
2022-11-25T09:47:58.266Z,100321.00
2022-11-25T09:50:44.075Z,100333.00
2022-11-25T09:53:30.042Z,100333.00
2022-11-25T09:56:13.538Z,100325.00
2022-11-25T09:59:14.275Z,100320.00
2022-11-25T10:02:07.280Z,100325.00
2022-11-25T10:04:50.859Z,100335.00
2022-11-25T10:07:46.005Z,100323.00
2022-11-25T10:10:30.962Z,100315.00
2022-11-25T10:13:35.732Z,100321.00
2022-11-25T10:16:51.236Z,100324.00
2022-11-25T10:19:38.846Z,100334.00
2022-11-25T10:22:39.819Z,100322.00
2022-11-25T10:25:38.380Z,100337.00
2022-11-25T10:28:30.779Z,100326.00
2022-11-25T10:31:10.532Z,100323.00
2022-11-25T10:33:46.976Z,100318.00
2022-11-25T10:36:23.926Z,100321.00
2022-11-25T10:39:02.084Z,100315.00
2022-11-25T10:42:02.006Z,100312.00
2022-11-25T10:44:41.912Z,100316.00
2022-11-25T10:47:39.886Z,100305.00
2022-11-25T10:50:34.627Z,100318.00
2022-11-25T10:53:13.537Z,100314.00
2022-11-25T10:56:09.864Z,100313.00
2022-11-25T10:58:52.798Z,100306.00
2022-11-25T11:01:26.569Z,100307.00
2022-11-25T11:04:23.116Z,100308.00
2022-11-25T11:07:11.623Z,100304.00
2022-11-25T11:09:59.446Z,100308.00
2022-11-25T11:12:33.805Z,100299.00
2022-11-25T11:15:27.037Z,100302.00
2022-11-25T11:17:58.970Z,100300.00
2022-11-25T11:20:31.496Z,100302.00
2022-11-25T11:23:09.292Z,100299.00
2022-11-25T11:25:43.219Z,100288.00
2022-11-25T11:28:40.720Z,100298.00
2022-11-25T11:31:23.233Z,100296.00
2022-11-25T11:34:02.315Z,100299.00
2022-11-25T11:36:46.527Z,100293.00
2022-11-25T11:39:51.799Z,100295.00
2022-11-25T11:42:33.551Z,100294.00
2022-11-25T11:45:18.639Z,100293.00
2022-11-25T11:48:06.384Z,100292.00
2022-11-25T11:50:44.785Z,100290.00
2022-11-25T11:53:26.016Z,100299.00
2022-11-25T11:56:33.601Z,100289.00
2022-11-25T11:59:19.262Z,100287.00
2022-11-25T12:02:03.031Z,100285.00
2022-11-25T12:04:44.752Z,100283.00
2022-11-25T12:07:22.279Z,100284.00
2022-11-25T12:10:01.094Z,100281.00
2022-11-25T12:12:41.652Z,100274.00
2022-11-25T12:15:28.943Z,100281.00
2022-11-25T12:18:20.191Z,100280.00
2022-11-25T12:21:05.069Z,100277.00
2022-11-25T12:23:47.459Z,100267.00
2022-11-25T12:26:27.203Z,100275.00
2022-11-25T12:29:01.332Z,100276.00
2022-11-25T12:31:38.732Z,100267.00
2022-11-25T12:34:15.213Z,100270.00
2022-11-25T12:36:51.791Z,100267.00
2022-11-25T12:39:31.512Z,100273.00
2022-11-25T12:42:18.526Z,100267.00
2022-11-25T12:48:58.170Z,100282.00
2022-11-25T12:52:38.630Z,100277.00
2022-11-25T12:55:38.121Z,100272.00
2022-11-25T12:58:48.893Z,100275.00
2022-11-25T13:01:53.253Z,100282.00
2022-11-25T13:05:32.844Z,100278.00
2022-11-25T13:08:35.718Z,100274.00
2022-11-25T13:11:57.384Z,100280.00
2022-11-25T13:15:02.386Z,100283.00
2022-11-25T13:18:05.067Z,100286.00
2022-11-25T13:20:50.557Z,100290.00
2022-11-25T13:24:11.254Z,100292.00
2022-11-25T13:26:54.408Z,100295.00
2022-11-25T13:30:04.981Z,100298.00
2022-11-25T13:32:42.255Z,100307.00
2022-11-25T13:35:39.366Z,100304.00
2022-11-25T13:38:38.104Z,100306.00
2022-11-25T13:41:33.629Z,100311.00
2022-11-25T13:44:07.341Z,100312.00
2022-11-25T13:46:43.615Z,100306.00
2022-11-25T13:49:29.425Z,100312.00
2022-11-25T13:52:01.090Z,100313.00
2022-11-25T13:54:38.068Z,100308.00
2022-11-25T13:57:28.803Z,100307.00
2022-11-25T14:00:00.392Z,100306.00
2022-11-25T14:02:46.803Z,100317.00
2022-11-25T14:05:48.785Z,100310.00
2022-11-25T14:08:27.816Z,100319.00
2022-11-25T14:11:20.266Z,100322.00
2022-11-25T14:14:21.756Z,100318.00
2022-11-25T14:17:06.502Z,100333.00
2022-11-25T14:20:05.236Z,100323.00
2022-11-25T14:23:09.352Z,100330.00
2022-11-25T14:25:49.570Z,100326.00
2022-11-25T14:28:30.579Z,100333.00
2022-11-25T14:31:05.108Z,100350.00
2022-11-25T14:33:38.149Z,100340.00
2022-11-25T14:36:12.274Z,100344.00
2022-11-25T14:38:49.756Z,100352.00
2022-11-25T14:41:21.176Z,100357.00
2022-11-25T14:43:55.317Z,100361.00
2022-11-25T14:46:25.879Z,100360.00
2022-11-25T14:48:57.629Z,100362.00
2022-11-25T14:51:28.245Z,100367.00
2022-11-25T14:53:57.794Z,100379.00
2022-11-25T14:56:30.183Z,100376.00
2022-11-25T14:59:00.434Z,100377.00
2022-11-25T15:01:30.732Z,100373.00
2022-11-25T15:04:16.461Z,100381.00
2022-11-25T15:06:51.668Z,100381.00
2022-11-25T15:09:23.689Z,100387.00
2022-11-25T15:11:58.159Z,100396.00
2022-11-25T15:14:29.117Z,100398.00
2022-11-25T15:16:59.133Z,100402.00
2022-11-25T15:19:35.287Z,100408.00
2022-11-25T15:22:24.786Z,100413.00
2022-11-25T15:24:58.661Z,100411.00
2022-11-25T15:27:36.843Z,100410.00
2022-11-25T15:30:28.562Z,100421.00
2022-11-25T15:33:03.929Z,100427.00
2022-11-25T15:35:42.110Z,100421.00
2022-11-25T15:38:39.945Z,100429.00
2022-11-25T15:41:21.649Z,100427.00
2022-11-25T15:43:59.666Z,100426.00
2022-11-25T15:46:31.341Z,100425.00
2022-11-25T15:49:03.940Z,100425.00
2022-11-25T15:51:42.460Z,100422.00
2022-11-25T15:54:26.104Z,100432.00
2022-11-25T15:57:03.885Z,100432.00
2022-11-25T15:59:48.090Z,100431.00
2022-11-25T16:02:39.475Z,100438.00
2022-11-25T16:05:23.068Z,100438.00
2022-11-25T16:08:34.194Z,100434.00
2022-11-25T16:11:16.537Z,100442.00
2022-11-25T16:13:50.018Z,100444.00
2022-11-25T16:16:28.888Z,100443.00
2022-11-25T16:19:21.617Z,100440.00
2022-11-25T16:22:12.163Z,100435.00
2022-11-25T16:24:49.306Z,100448.00
2022-11-25T16:27:21.102Z,100457.00
2022-11-25T16:29:53.084Z,100451.00
2022-11-25T16:32:26.528Z,100451.00
2022-11-25T16:34:58.181Z,100457.00
2022-11-25T16:37:27.312Z,100459.00
2022-11-25T16:39:57.846Z,100450.00
2022-11-25T16:42:27.153Z,100468.00
2022-11-25T16:44:56.140Z,100455.00
2022-11-25T16:47:26.446Z,100459.00
2022-11-25T16:49:58.128Z,100464.00
2022-11-25T16:52:27.211Z,100470.00
2022-11-25T16:55:00.480Z,100473.00
2022-11-25T16:57:36.760Z,100474.00
2022-11-25T17:00:10.705Z,100475.00
2022-11-25T17:02:39.713Z,100478.00
2022-11-25T17:05:18.016Z,100482.00
2022-11-25T17:07:47.106Z,100477.00
2022-11-25T17:10:18.111Z,100479.00
2022-11-25T17:12:50.864Z,100484.00
2022-11-25T17:15:24.738Z,100476.00
2022-11-25T17:17:55.477Z,100477.00
2022-11-25T17:20:26.170Z,100482.00
2022-11-25T17:22:55.821Z,100480.00
2022-11-25T17:25:33.714Z,100491.00
2022-11-25T17:28:05.951Z,100496.00
2022-11-25T17:30:35.069Z,100491.00
2022-11-25T17:33:06.278Z,100484.00
2022-11-25T17:35:36.257Z,100497.00
2022-11-25T17:38:14.333Z,100501.00
2022-11-25T17:40:46.190Z,100504.00
2022-11-25T17:43:17.779Z,100497.00
2022-11-25T17:45:47.609Z,100501.00
2022-11-25T17:48:19.023Z,100502.00
2022-11-25T17:50:47.972Z,100509.00
2022-11-25T17:53:16.648Z,100501.00
2022-11-25T17:55:46.766Z,100505.00
2022-11-25T17:58:19.248Z,100509.00
2022-11-25T18:00:50.389Z,100510.00
2022-11-25T18:03:19.959Z,100524.00
2022-11-25T18:05:49.440Z,100521.00
2022-11-25T18:08:18.904Z,100526.00
2022-11-25T18:10:52.835Z,100525.00
2022-11-25T18:13:22.406Z,100523.00
2022-11-25T18:16:02.939Z,100523.00
2022-11-25T18:18:32.305Z,100531.00
2022-11-25T18:21:01.661Z,100535.00
2022-11-25T18:23:30.871Z,100538.00
2022-11-25T18:26:03.425Z,100535.00
2022-11-25T18:28:33.815Z,100543.00
2022-11-25T18:31:05.924Z,100530.00
2022-11-25T18:33:35.329Z,100540.00
2022-11-25T18:36:04.538Z,100539.00
2022-11-25T18:38:33.544Z,100544.00
2022-11-25T18:41:04.087Z,100548.00
2022-11-25T18:43:34.960Z,100554.00
2022-11-25T18:46:05.030Z,100553.00
2022-11-25T18:48:34.371Z,100553.00
2022-11-25T18:51:03.089Z,100562.00
2022-11-25T18:53:32.265Z,100559.00
2022-11-25T18:56:02.708Z,100563.00
2022-11-25T18:58:32.927Z,100567.00
2022-11-25T19:01:05.734Z,100560.00
2022-11-25T19:03:34.591Z,100573.00
2022-11-25T19:06:03.613Z,100567.00
2022-11-25T19:08:32.713Z,100565.00
2022-11-25T19:11:02.991Z,100577.00
2022-11-25T19:13:34.860Z,100578.00
2022-11-25T19:16:08.702Z,100589.00
2022-11-25T19:18:37.783Z,100582.00
2022-11-25T19:21:06.977Z,100590.00
2022-11-25T19:23:36.166Z,100590.00
2022-11-25T19:26:14.491Z,100590.00
2022-11-25T19:28:44.424Z,100596.00
2022-11-25T19:31:14.328Z,100593.00
2022-11-25T19:33:46.970Z,100589.00
2022-11-25T19:36:23.472Z,100599.00
2022-11-25T19:38:52.213Z,100599.00
2022-11-25T19:41:22.677Z,100613.00
2022-11-25T19:43:51.505Z,100607.00
2022-11-25T19:46:30.067Z,100610.00
2022-11-25T19:49:03.953Z,100630.00
2022-11-25T19:51:35.310Z,100623.00
2022-11-25T19:54:04.050Z,100637.00
2022-11-25T19:56:37.465Z,100633.00
2022-11-25T19:59:06.075Z,100624.00
2022-11-25T20:01:37.136Z,100641.00
2022-11-25T20:04:06.935Z,100636.00
2022-11-25T20:06:35.855Z,100639.00
2022-11-25T20:09:07.907Z,100644.00
2022-11-25T20:11:38.336Z,100646.00
2022-11-25T20:14:07.345Z,100659.00
2022-11-25T20:16:38.610Z,100657.00
2022-11-25T20:19:08.332Z,100655.00
2022-11-25T20:21:39.878Z,100663.00
2022-11-25T20:24:15.405Z,100673.00
2022-11-25T20:26:48.594Z,100681.00
2022-11-25T20:29:19.339Z,100685.00
2022-11-25T20:31:48.945Z,100684.00
2022-11-25T20:34:17.853Z,100675.00
2022-11-25T20:36:46.834Z,100690.00
2022-11-25T20:39:20.110Z,100691.00
2022-11-25T20:41:52.852Z,100688.00
2022-11-25T20:44:22.932Z,100699.00
2022-11-25T20:46:51.872Z,100698.00
2022-11-25T20:49:27.651Z,100699.00
2022-11-25T20:51:56.676Z,100699.00
2022-11-25T20:54:25.705Z,100708.00
2022-11-25T20:56:57.394Z,100712.00
2022-11-25T20:59:26.417Z,100709.00
2022-11-25T21:01:55.596Z,100711.00
2022-11-25T21:04:24.667Z,100723.00
2022-11-25T21:06:53.587Z,100725.00
2022-11-25T21:09:33.115Z,100721.00
2022-11-25T21:12:03.756Z,100717.00
2022-11-25T21:14:32.906Z,100730.00
2022-11-25T21:17:01.539Z,100738.00
2022-11-25T21:19:30.275Z,100749.00
2022-11-25T21:21:59.187Z,100747.00
2022-11-25T21:24:33.446Z,100742.00
2022-11-25T21:27:09.970Z,100753.00
2022-11-25T21:29:43.164Z,100757.00
2022-11-25T21:32:20.772Z,100750.00
2022-11-25T21:34:49.780Z,100759.00
2022-11-25T21:37:20.708Z,100757.00
2022-11-25T21:39:49.508Z,100773.00
2022-11-25T21:42:22.596Z,100769.00
2022-11-25T21:44:52.541Z,100773.00
2022-11-25T21:47:25.045Z,100774.00
2022-11-25T21:49:54.898Z,100772.00
2022-11-25T21:52:23.668Z,100781.00
2022-11-25T21:54:52.472Z,100777.00
2022-11-25T21:57:29.689Z,100776.00
2022-11-25T22:00:23.113Z,100774.00
2022-11-25T22:02:55.223Z,100780.00
2022-11-25T22:05:26.819Z,100780.00
2022-11-25T22:08:04.747Z,100797.00
2022-11-25T22:10:38.375Z,100789.00
2022-11-25T22:13:27.148Z,100796.00
2022-11-25T22:16:01.916Z,100803.00
2022-11-25T22:18:39.205Z,100791.00
2022-11-25T22:21:10.828Z,100794.00
2022-11-25T22:23:45.826Z,100800.00
2022-11-25T22:26:25.217Z,100796.00
2022-11-25T22:29:06.458Z,100801.00
2022-11-25T22:31:43.643Z,100807.00
2022-11-25T22:34:23.903Z,100811.00
2022-11-25T22:37:02.092Z,100813.00
2022-11-25T22:39:44.390Z,100815.00
2022-11-25T22:42:24.860Z,100820.00
2022-11-25T22:45:09.483Z,100804.00
2022-11-25T22:47:49.130Z,100820.00
2022-11-25T22:50:27.661Z,100825.00
2022-11-25T22:53:06.636Z,100825.00
2022-11-25T22:55:39.905Z,100838.00
2022-11-25T22:58:13.581Z,100838.00
2022-11-25T23:00:54.696Z,100833.00
2022-11-25T23:03:30.407Z,100852.00
2022-11-25T23:06:06.174Z,100838.00
2022-11-25T23:08:38.396Z,100844.00
2022-11-25T23:11:15.518Z,100852.00
2022-11-25T23:13:51.765Z,100847.00
2022-11-25T23:16:28.217Z,100849.00
2022-11-25T23:18:57.536Z,100857.00
2022-11-25T23:21:29.740Z,100849.00
2022-11-25T23:24:02.403Z,100855.00
2022-11-25T23:26:35.052Z,100853.00
2022-11-25T23:29:12.304Z,100852.00
2022-11-25T23:31:49.494Z,100857.00
2022-11-25T23:34:18.829Z,100861.00
2022-11-25T23:36:49.737Z,100868.00
2022-11-25T23:39:23.532Z,100859.00
2022-11-25T23:41:58.976Z,100874.00
2022-11-25T23:44:34.088Z,100865.00
2022-11-25T23:47:07.079Z,100870.00
2022-11-25T23:49:42.223Z,100874.00
2022-11-25T23:52:20.039Z,100878.00
2022-11-25T23:54:54.287Z,100871.00
2022-11-25T23:57:26.349Z,100881.00
